Akron, NY

10:32 AM EDT on September 30, 2014 (GMT -0400)
Utley Road | Change Station
CLOSE
Current Station
Personal Weather Station
Location: Akron, NY
Elevation: 646 ft
Nearby Weather Stations

Elev 646 ft 43.02 °N, 78.57 °W | Updated 9 seconds ago

Partly Cloudy
Partly Cloudy
69.3 °F
Feels Like 69.3 °F
N
0.0
Wind Variable Wind from SSW
Gusts 0.0 mph

Today
High -- | Low -- °F
--% Chance of Precip.
Yesterday
High -- | Low -- °F
Precip. -- in
7:10 AM 6:57 PM
Waxing Crescent, 37% visible
Pressure 29.90 in
Visibility 10.0 miles
Clouds Clear
Dew Point 63 °F
Humidity 80%
Rainfall 0.00 in
Snow Depth Not available.
UV 3 out of 12
Pollen .90 out of 12
PM2.5 Moderate
Flu Activity Not available.
METAR KBUF 301354Z 23003KT 10SM CLR 17/12 A2990 RMK AO2 SLP123 T01720122

More Conditions Fewer Conditions

Pressure 29.90 in
Visibility 10.0 miles
Clouds Clear
Dew Point 63 °F
Humidity 80%
Rainfall 0.00 in
Snow Depth Not available.
UV 3 out of 12
Pollen .90 out of 12
PM2.5 Moderate
Flu Activity Not available.
METAR KBUF 301354Z 23003KT 10SM CLR 17/12 A2990 RMK AO2 SLP123 T01720122

More Conditions Fewer Conditions

10-Day Weather Forecast

Almanac

Astronomy

Sep. 30, 2014 Rise Set
Actual Time 7:10 AM EDT 6:57 PM EDT
Civil Twilight 6:41 AM EDT 7:25 PM EDT
Nautical Twilight 6:08 AM EDT 7:58 PM EDT
Astronomical Twilight 5:35 AM EDT 8:31 PM EDT
Moon 1:23 PM EDT 11:18 PM EDT
Length of Visible Light 12h 43m
Length of Day
11h 46m
Tomorrow will be 2m 54s shorter.
Waxing Crescent, 37% of the Moon is Illuminated
Today
Waxing Crescent
Oct 1
First Quarter
Oct 8
Full
Oct 15
Last Quarter
Oct 23
New

Today's Extremes

State Highs State Lows

Community

WunderPhotos

Upload Photos

1,757,641 photos uploaded!

WunderBlogs® & News

By Dr. Jeff Masters
Director of Meteorology, Weather Underground
By Kari Strenfel
Meteorologist, Weather Underground
By Christopher C. Burt
Weather Historian, Weather Underground
September 30, 2014
September 30, 2014
September 30, 2014

Nearby

Air Quality

  Air Quality AQ Index Pollutant
Yesterday Moderate
PM2.5
Yesterday Good
OZONE
Current Moderate
PM2.5
Tuesday Moderate
PM2.5
Tuesday Good
OZONE

Snow Depth

Station Depth Elevation
No new snow has been reported.

Earthquake Activity

City Distance Mag. Time & Date
No recent earthquake activity has been reported nearby.
Minimum magnitude displayed is 2.5.

Coastal Water Temperatures

Place Temperature
Buffalo, NY 68.0 °F

Nearby Weather Stations